Weather observations for the past three days for
Stockton, Stockton Metropolitan Airport
Imperial (Metric)
Date Time (pdt) Wind (mph) Vis. (mi.) Weather Sky Cond. Temperature (ºF) Relative Humidity Wind Chill (°F) Heat Index (°F) Pressure Precipitation (in)
Air Dwpt 6 hour altimeter (in) sea level (mb) 1 hr 3 hr 6 hr
Max. Min.
05 22:55 W 7 10.00 Fair CLR 55.9 54 64 54 93% 30.05 1017.4
05 21:55 W 5 10.00 Fair CLR 57 54 90% 30.03 1016.9
05 20:55 W 8 10.00 A Few Clouds FEW046 59 54 83% 30.01 1016.2
05 19:55 W 7 10.00 Overcast OVC044 62.1 55 78% 29.99 1015.5
05 18:55 W 7 10.00 Overcast OVC044 63 55 76% 29.98 1015.2
05 17:55 SW 5 10.00 Overcast FEW029 OVC041 64 55 73% 29.98 1015.2
05 16:55 W 6 10.00 Overcast OVC037 64 55.9 66.9 57 75% 29.97 1014.9
05 15:55 W 9 10.00 Mostly Cloudy FEW026 BKN038 64 55.9 75% 29.97 1014.9
05 14:55 W 6 10.00 Overcast SCT024 BKN029 OVC040 64 55.9 75% 29.99 1015.4
05 13:55 W 7 10.00 Overcast OVC019 60.1 55.9 86% 29.99 1015.5
05 12:55 W 7 10.00 Overcast OVC019 60.1 55.9 86% 30 1015.8
05 11:55 W 7 10.00 Overcast OVC019 59 55.9 90% 30 1015.9
05 10:55 W 9 10.00 Overcast OVC020 57.9 55 57.9 53.1 90% 29.99 1015.5 0.01
05 09:55 SW 7 10.00 Overcast OVC023 55.9 55 97% 29.99 1015.4
05 08:55 SW 5 10.00 Overcast OVC024 55 55 100% 29.98 1015.2
05 07:55 Calm 10.00 Overcast BKN027 OVC045 54 54 100% 29.97 1014.9 0.01
05 06:55 Calm 10.00 Overcast SCT029 OVC055 53.1 53.1 100% 29.96 1014.5
05 05:55 W 3 10.00 Overcast OVC080 53.1 53.1 100% 29.95 1014.2 0.01
05 04:55 Calm 10.00 Light Rain OVC085 53.1 53.1 55.9 53.1 100% 29.96 1014.4 0.07
05 03:55 NW 3 10.00 Overcast OVC065 53.1 53.1 100% 29.96 1014.4
05 02:55 NW 3 10.00 Overcast FEW080 OVC100 53.1 53.1 100% 29.96 1014.5
05 01:55 NW 6 10.00 Overcast FEW008 OVC075 53.1 53.1 100% 29.98 1015.1 0.01 0.07
05 00:55 NW 7 7.00 Light Rain OVC070 54 54 100% 29.98 1015.2 0.06
04 23:55 NW 7 10.00 Light Rain OVC070 55 54 96% 29.98 1015.0
04 22:55 N 6 10.00 Overcast OVC075 55.9 52 62.1 55.9 87% 29.97 1014.9
04 21:55 NW 7 G 17 10.00 Overcast OVC040 57 51.1 81% 29.98 1015.1
04 20:55 NW 9 10.00 Overcast OVC041 57.9 50 75% 29.96 1014.6
04 19:55 Calm 10.00 Overcast OVC040 59 54 83% 29.95 1014.0
04 18:55 Calm 10.00 Overcast OVC044 60.1 53.1 78% 29.95 1014.1
04 17:55 SE 3 10.00 Overcast OVC040 61 53.1 75% 29.96 1014.3
04 16:55 E 6 10.00 Overcast OVC040 61 53.1 66.9 61 75% 29.96 1014.5
04 15:55 NE 6 10.00 Overcast BKN041 OVC050 62.1 53.1 73% 29.96 1014.5
04 14:55 NE 7 10.00 Overcast BKN030 OVC037 62.1 53.1 73% 29.97 1014.8
04 13:55 W 3 10.00 Overcast BKN039 OVC047 64 53.1 68% 29.97 1014.9
04 12:55 Calm 10.00 Overcast OVC039 64 51.1 63% 29.97 1014.8
04 11:55 Vrbl 5 10.00 Mostly Cloudy BKN037 64.9 51.1 61% 29.98 1015.1
04 10:55 Vrbl 3 10.00 Mostly Cloudy SCT090 BKN110 62.1 50 62.1 55 65% 29.98 1015.3
04 09:55 Calm 10.00 Mostly Cloudy BKN090 60.1 50 70% 29.98 1015.0
04 08:55 SW 3 10.00 Overcast OVC090 57.9 51.1 78% 29.97 1014.8
04 07:55 W 7 10.00 Mostly Cloudy BKN095 55.9 50 81% 29.97 1014.8
04 06:55 W 5 10.00 Mostly Cloudy BKN055 55 50 83% 29.97 1014.8
04 05:55 W 6 10.00 Overcast OVC049 55 51.1 87% 29.96 1014.4
04 04:55 W 8 10.00 Overcast OVC049 55.9 51.1 57.9 55 84% 29.94 1014.0
04 03:55 W 10 10.00 Overcast OVC049 55.9 51.1 84% 29.94 1013.9
04 02:55 W 12 10.00 Overcast OVC048 55.9 50 81% 29.94 1013.9
04 01:55 NW 12 10.00 Overcast OVC049 55.9 50 81% 29.95 1014.1
04 00:55 NW 8 10.00 Overcast OVC047 55.9 51.1 84% 29.96 1014.4
03 23:55 W 9 10.00 Overcast OVC046 57.9 50 75% 29.94 1013.9
03 22:55 NW 7 10.00 A Few Clouds FEW049 55 51.1 71.1 55 87% 29.94 1013.8
03 21:55 NW 7 10.00 A Few Clouds FEW050 55.9 50 81% 29.93 1013.3
03 20:55 NW 10 10.00 Partly Cloudy SCT050 59 51.1 75% 29.91 1012.8
03 19:55 NW 14 10.00 Fair CLR 61 51.1 70% 29.89 1012.0
03 18:55 W 15 10.00 A Few Clouds FEW039 64.9 51.1 61% 29.87 1011.4
03 17:55 W 15 10.00 Fair CLR 69.1 52 55% 29.86 1011.2
03 16:55 W 12 G 23 10.00 Fair CLR 71.1 53.1 73 66 53% 29.86 1010.9
03 15:55 W 8 10.00 Partly Cloudy SCT047 72 53.1 52% 29.86 1011.1
03 14:55 SW 8 G 16 10.00 Fair CLR 70 52 53% 29.87 1011.4
03 13:55 W 9 10.00 Mostly Cloudy BKN046 71.1 53.1 53% 29.88 1011.8
03 12:55 W 9 G 18 10.00 A Few Clouds FEW041 70 52 53% 29.88 1011.7
03 11:55 W 12 G 21 10.00 Partly Cloudy SCT038 69.1 52 55% 29.89 1012.2
03 10:55 NW 10 10.00 A Few Clouds FEW038 66 52 66 54 61% 29.9 1012.3
03 09:55 W 12 10.00 A Few Clouds FEW025 61 52 72% 29.89 1012.3
03 08:55 W 9 10.00 A Few Clouds FEW120 60.1 53.1 78% 29.89 1012.0
03 07:55 NW 12 10.00 Fair CLR 57 52 83% 29.87 1011.4
03 06:55 NW 9 10.00 Fair CLR 55 52 90% 29.85 1010.8
03 05:55 NW 9 10.00 Fair CLR 54 52 93% 29.83 1010.0
03 04:55 NW 7 10.00 Fair CLR 54 52 55.9 54 93% 29.82 1009.7
03 03:55 NW 8 10.00 Fair CLR 55 52 90% 29.82 1009.8
03 02:55 NW 9 10.00 Fair CLR 55 53.1 93% 29.82 1009.6
03 01:55 NW 7 10.00 Fair CLR 55 53.1 93% 29.83 1009.9
03 00:55 N 6 10.00 Fair CLR 55 53.1 93% 29.84 1010.3
02 23:55 NW 8 10.00 Fair CLR 55 53.1 93% 29.85 1010.6
Date Time (pdt) Wind (mph) Vis. (mi.) Weather Sky Cond. Air Dwpt Max. Min. Relative Humidity Wind Chill (°F) Heat Index (°F) altimeter (in) sea level (mb) 1 hr 3 hr 6 hr
6 hour
Temperature (ºF) Pressure Precipitation (in)